Time;durP1;ratioP1;P1;durP2;ratioP2;P2;SDS_P1;SDS_P2;PMS_P1;PMS_P2;Temp;Humidity;BMP_temperature;BMP_pressure;BME280_temperature;BME280_humidity;BME280_pressure;Samples;Min_cycle;Max_cycle;Signal;HPM_P1;HPM_P2
2023/08/24 00:00:59;;;;;;;;;;;;;;;;;;7368790;19;1466;-64
2023/08/24 00:03:27;;;;;;;;;;;;;;;;;;7366404;19;1769;-64
2023/08/24 00:05:55;;;;;;;;;;;;;;;;;;7365908;19;1704;-64
2023/08/24 00:08:23;;;;;;;;;;;;;;;;;;7364041;19;1857;-64
2023/08/24 00:10:51;;;;;;;;;;;;;;;;;;7366949;19;1562;-64
2023/08/24 00:13:19;;;;;;;;;;;;;;;;;;7365090;19;1658;-64
2023/08/24 00:15:48;;;;;;;;;;;;;;;;;;7361987;19;1837;-64
2023/08/24 00:18:18;;;;;;;;;;;;;;;;;;7365876;19;2018;-64
2023/08/24 00:20:47;;;;;;;;;;;;;;;;;;7366235;19;1677;-64
2023/08/24 00:23:15;;;;;;;;;;;;;;;;;;7367701;19;1747;-63
2023/08/24 00:25:43;;;;;;;;;;;;;;;;;;7363958;19;1704;-63
2023/08/24 00:28:12;;;;;;;;;;;;;;;;;;7364736;19;1851;-64
2023/08/24 00:30:40;;;;;;;;;;;;;;;;;;7365364;19;1657;-64
2023/08/24 00:33:08;;;;;;;;;;;;;;;;;;7363303;19;1747;-63
2023/08/24 00:35:37;;;;;;;;;;;;;;;;;;7360166;19;1743;-64
2023/08/24 00:38:05;;;;;;;;;;;;;;;;;;7363998;19;2092;-64
2023/08/24 00:40:35;;;;;;;;;;;;;;;;;;7363041;19;1785;-64
2023/08/24 00:43:03;;;;;;;;;;;;;;;;;;7361963;19;1747;-64
2023/08/24 00:45:32;;;;;;;;;;;;;;;;;;7369847;19;1698;-63
2023/08/24 00:48:00;;;;;;;;;;;;;;;;;;7371685;19;1849;-64
2023/08/24 00:50:29;;;;;;;;;;;;;;;;;;7369479;19;1911;-64
2023/08/24 00:52:57;;;;;;;;;;;;;;;;;;7372846;19;1706;-63
2023/08/24 00:55:25;;;;;;;;;;;;;;;;;;7369126;19;1647;-63
2023/08/24 00:57:54;;;;;;;;;;;;;;;;;;7372386;19;1363;-64
2023/08/24 01:00:23;;;;;;;;;;;;;;;;;;7370944;19;1773;-64
2023/08/24 01:02:51;;;;;;;;;;;;;;;;;;7370482;19;1838;-63
2023/08/24 01:05:19;;;;;;;;;;;;;;;;;;7369911;19;1626;-63
2023/08/24 01:07:47;;;;;;;;;;;;;;;;;;7369327;19;2258;-63
2023/08/24 01:10:15;;;;;;;;;;;;;;;;;;7370570;19;1622;-63
2023/08/24 01:12:44;;;;;;;;;;;;;;;;;;7370070;19;2060;-63
2023/08/24 01:15:12;;;;;;;;;;;;;;;;;;7369329;19;1945;-64
2023/08/24 01:17:40;;;;;;;;;;;;;;;;;;7369458;19;1793;-64
2023/08/24 01:20:09;;;;;;;;;;;;;;;;;;7372346;19;1798;-64
2023/08/24 01:22:38;;;;;;;;;;;;;;;;;;7369014;19;1844;-63
2023/08/24 01:25:06;;;;;;;;;;;;;;;;;;7371755;19;1466;-64
2023/08/24 01:27:34;;;;;;;;;;;;;;;;;;7366979;19;1845;-63
2023/08/24 01:30:03;;;;;;;;;;;;;;;;;;7368402;19;801;-64
2023/08/24 01:32:32;;;;;;;;;;;;;;;;;;7369410;19;797;-64
2023/08/24 01:35:00;;;;;;;;;;;;;;;;;;7366943;19;1315;-64
2023/08/24 01:37:28;;;;;;;;;;;;;;;;;;7367367;19;800;-64
2023/08/24 01:39:56;;;;;;;;;;;;;;;;;;7366567;19;1844;-63
2023/08/24 01:42:24;;;;;;;;;;;;;;;;;;7370873;19;874;-63
2023/08/24 01:44:52;;;;;;;;;;;;;;;;;;7368457;19;1444;-63
2023/08/24 01:47:21;;;;;;;;;;;;;;;;;;7370912;19;1880;-64
2023/08/24 01:49:49;;;;;;;;;;;;;;;;;;7368840;19;1735;-63
2023/08/24 01:52:17;;;;;;;;;;;;;;;;;;7369799;19;1716;-64
2023/08/24 01:54:45;;;;;;;;;;;;;;;;;;7367864;19;1925;-63
2023/08/24 01:57:13;;;;;;;;;;;;;;;;;;7370946;19;1537;-63
2023/08/24 01:59:41;;;;;;;;;;;;;;;;;;7368155;19;1789;-64
2023/08/24 02:02:10;;;;;;;;;;;;;;;;;;7370783;19;1753;-63
2023/08/24 02:04:38;;;;;;;;;;;;;;;;;;7367631;19;1753;-63
2023/08/24 02:07:06;;;;;;;;;;;;;;;;;;7366897;19;1817;-64
2023/08/24 02:09:34;;;;;;;;;;;;;;;;;;7367613;19;1854;-63
2023/08/24 02:12:03;;;;;;;;;;;;;;;;;;7368480;19;1786;-64
2023/08/24 02:14:31;;;;;;;;;;;;;;;;;;7368667;19;1675;-64
2023/08/24 02:16:59;;;;;;;;;;;;;;;;;;7367863;19;1850;-64
2023/08/24 02:19:27;;;;;;;;;;;;;;;;;;7367086;19;1775;-64
2023/08/24 02:21:55;;;;;;;;;;;;;;;;;;7369196;19;1603;-63
2023/08/24 02:24:24;;;;;;;;;;;;;;;;;;7369436;19;2074;-63
2023/08/24 02:26:52;;;;;;;;;;;;;;;;;;7368575;19;1721;-63
2023/08/24 02:29:20;;;;;;;;;;;;;;;;;;7367025;19;1846;-63
2023/08/24 02:31:51;;;;;;;;;;;;;;;;;;7370300;19;1681;-63
2023/08/24 02:34:19;;;;;;;;;;;;;;;;;;7367621;19;2004;-63
2023/08/24 02:36:47;;;;;;;;;;;;;;;;;;7368927;19;1871;-63
2023/08/24 02:39:16;;;;;;;;;;;;;;;;;;7368042;19;1870;-63
2023/08/24 02:41:44;;;;;;;;;;;;;;;;;;7367841;19;1663;-63
2023/08/24 02:44:12;;;;;;;;;;;;;;;;;;7370932;19;1697;-63
2023/08/24 02:46:42;;;;;;;;;;;;;;;;;;7367173;19;1813;-63
2023/08/24 02:49:10;;;;;;;;;;;;;;;;;;7366936;19;1870;-62
2023/08/24 02:51:38;;;;;;;;;;;;;;;;;;7369545;19;2105;-63
2023/08/24 02:54:07;;;;;;;;;;;;;;;;;;7369907;19;1508;-63
2023/08/24 02:56:35;;;;;;;;;;;;;;;;;;7369320;19;1805;-63
2023/08/24 02:59:03;;;;;;;;;;;;;;;;;;7367765;19;2045;-63
2023/08/24 03:01:32;;;;;;;;;;;;;;;;;;7367745;19;1673;-63
2023/08/24 03:04:00;;;;;;;;;;;;;;;;;;7369045;19;1584;-64
2023/08/24 03:06:28;;;;;;;;;;;;;;;;;;7368170;19;1813;-63
2023/08/24 03:08:56;;;;;;;;;;;;;;;;;;7365828;19;1857;-63
2023/08/24 03:11:24;;;;;;;;;;;;;;;;;;7369307;19;2005;-64
2023/08/24 03:13:54;;;;;;;;;;;;;;;;;;7369119;19;1734;-64
2023/08/24 03:16:22;;;;;;;;;;;;;;;;;;7368130;19;1749;-64
2023/08/24 03:18:50;;;;;;;;;;;;;;;;;;7366369;19;1868;-65
2023/08/24 03:21:19;;;;;;;;;;;;;;;;;;7367772;19;1641;-65
2023/08/24 03:23:47;;;;;;;;;;;;;;;;;;7366773;19;1771;-64
2023/08/24 03:26:16;;;;;;;;;;;;;;;;;;7368404;19;1983;-65
2023/08/24 03:28:44;;;;;;;;;;;;;;;;;;7365351;19;1842;-65
2023/08/24 03:31:12;;;;;;;;;;;;;;;;;;7364838;19;851;-64
2023/08/24 03:33:40;;;;;;;;;;;;;;;;;;7363814;19;1285;-64
2023/08/24 03:36:09;;;;;;;;;;;;;;;;;;7364272;19;799;-64
2023/08/24 03:38:37;;;;;;;;;;;;;;;;;;7364053;19;881;-64
2023/08/24 03:41:06;;;;;;;;;;;;;;;;;;7367366;19;1495;-64
2023/08/24 03:43:36;;;;;;;;;;;;;;;;;;7365129;19;1275;-64
2023/08/24 03:46:05;;;;;;;;;;;;;;;;;;7364497;19;839;-64
2023/08/24 03:48:33;;;;;;;;;;;;;;;;;;7363365;19;1834;-64
2023/08/24 03:51:01;;;;;;;;;;;;;;;;;;7363625;19;873;-64
2023/08/24 03:53:32;;;;;;;;;;;;;;;;;;7363162;19;1290;-64
2023/08/24 03:56:00;;;;;;;;;;;;;;;;;;7363752;19;1051;-63
2023/08/24 03:58:28;;;;;;;;;;;;;;;;;;7368510;19;894;-63
2023/08/24 04:00:56;;;;;;;;;;;;;;;;;;7364936;19;1968;-63
2023/08/24 04:03:26;;;;;;;;;;;;;;;;;;7364563;19;1700;-63
2023/08/24 04:05:54;;;;;;;;;;;;;;;;;;7365175;19;1877;-64
2023/08/24 04:08:22;;;;;;;;;;;;;;;;;;7363146;19;1899;-64
2023/08/24 04:10:51;;;;;;;;;;;;;;;;;;7366583;19;1542;-65
2023/08/24 04:13:20;;;;;;;;;;;;;;;;;;7366742;19;1650;-64
2023/08/24 04:15:48;;;;;;;;;;;;;;;;;;7363283;19;1865;-64
2023/08/24 04:18:16;;;;;;;;;;;;;;;;;;7366617;19;1810;-64
2023/08/24 04:20:44;;;;;;;;;;;;;;;;;;7373399;19;1683;-64
2023/08/24 04:23:12;;;;;;;;;;;;;;;;;;7372500;19;1920;-65
2023/08/24 04:25:40;;;;;;;;;;;;;;;;;;7371969;19;1788;-64
2023/08/24 04:28:09;;;;;;;;;;;;;;;;;;7372215;19;1849;-64
2023/08/24 04:30:38;;;;;;;;;;;;;;;;;;7372814;19;2010;-64
2023/08/24 04:33:07;;;;;;;;;;;;;;;;;;7373691;19;1809;-63
2023/08/24 04:35:35;;;;;;;;;;;;;;;;;;7369966;19;1649;-63
2023/08/24 04:38:03;;;;;;;;;;;;;;;;;;7370361;19;1885;-64
2023/08/24 04:40:29;;;;;;;;;;;;;;;;;;7372913;19;1908;-64
2023/08/24 04:42:57;;;;;;;;;;;;;;;;;;7372776;19;1907;-64
2023/08/24 04:45:25;;;;;;;;;;;;;;;;;;7371654;19;1828;-64
2023/08/24 04:47:53;;;;;;;;;;;;;;;;;;7373149;19;1699;-64
2023/08/24 04:50:21;;;;;;;;;;;;;;;;;;7369811;19;1848;-64
2023/08/24 04:52:49;;;;;;;;;;;;;;;;;;7371217;19;2088;-64
2023/08/24 04:55:17;;;;;;;;;;;;;;;;;;7370480;19;1707;-64
2023/08/24 04:57:45;;;;;;;;;;;;;;;;;;7372449;19;1727;-63
2023/08/24 05:00:16;;;;;;;;;;;;;;;;;;7369985;19;2127;-63
2023/08/24 05:02:44;;;;;;;;;;;;;;;;;;7372621;19;1515;-63
2023/08/24 05:05:13;;;;;;;;;;;;;;;;;;7371910;19;1725;-63
2023/08/24 05:07:42;;;;;;;;;;;;;;;;;;7372312;19;1585;-64
2023/08/24 05:10:10;;;;;;;;;;;;;;;;;;7370165;19;1850;-64
2023/08/24 05:12:38;;;;;;;;;;;;;;;;;;7369717;19;1615;-63
2023/08/24 05:15:06;;;;;;;;;;;;;;;;;;7370752;19;1563;-63
2023/08/24 05:17:34;;;;;;;;;;;;;;;;;;7373079;19;1654;-63
2023/08/24 05:20:03;;;;;;;;;;;;;;;;;;7372470;19;1907;-63
2023/08/24 05:22:31;;;;;;;;;;;;;;;;;;7372047;19;1868;-63
2023/08/24 05:24:59;;;;;;;;;;;;;;;;;;7369203;19;1549;-63
2023/08/24 05:27:27;;;;;;;;;;;;;;;;;;7369525;19;846;-64
2023/08/24 05:29:55;;;;;;;;;;;;;;;;;;7368496;19;1834;-63
2023/08/24 05:32:23;;;;;;;;;;;;;;;;;;7368729;19;794;-63
2023/08/24 05:34:51;;;;;;;;;;;;;;;;;;7368160;19;1288;-64
2023/08/24 05:37:20;;;;;;;;;;;;;;;;;;7369329;19;829;-63
2023/08/24 05:39:48;;;;;;;;;;;;;;;;;;7369963;19;945;-63
2023/08/24 05:42:16;;;;;;;;;;;;;;;;;;7369280;19;780;-64
2023/08/24 05:44:44;;;;;;;;;;;;;;;;;;7371049;19;1513;-64
2023/08/24 05:47:12;;;;;;;;;;;;;;;;;;7372261;19;1437;-63
2023/08/24 05:49:40;;;;;;;;;;;;;;;;;;7366440;19;1859;-64
2023/08/24 05:52:08;;;;;;;;;;;;;;;;;;7368228;19;864;-65
2023/08/24 05:54:37;;;;;;;;;;;;;;;;;;7366911;19;1270;-63
2023/08/24 05:57:05;;;;;;;;;;;;;;;;;;7371055;19;809;-63
2023/08/24 05:59:34;;;;;;;;;;;;;;;;;;7367292;19;1852;-64
2023/08/24 06:02:02;;;;;;;;;;;;;;;;;;7372176;19;1483;-62
2023/08/24 06:04:30;;;;;;;;;;;;;;;;;;7370177;19;2005;-63
2023/08/24 06:06:58;;;;;;;;;;;;;;;;;;7370177;19;1674;-63
2023/08/24 06:09:26;;;;;;;;;;;;;;;;;;7368198;19;1863;-63
2023/08/24 06:11:54;;;;;;;;;;;;;;;;;;7368274;19;1925;-63
2023/08/24 06:14:23;;;;;;;;;;;;;;;;;;7368662;19;1585;-62
2023/08/24 06:16:53;;;;;;;;;;;;;;;;;;7369133;19;1826;-63
2023/08/24 06:19:21;;;;;;;;;;;;;;;;;;7368364;19;1778;-63
2023/08/24 06:21:49;;;;;;;;;;;;;;;;;;7370925;19;1770;-63
2023/08/24 06:24:17;;;;;;;;;;;;;;;;;;7369502;19;1855;-63
2023/08/24 06:26:45;;;;;;;;;;;;;;;;;;7371078;19;1672;-63
2023/08/24 06:29:13;;;;;;;;;;;;;;;;;;7366723;19;1860;-64
2023/08/24 06:31:42;;;;;;;;;;;;;;;;;;7370282;19;1715;-63
2023/08/24 06:34:10;;;;;;;;;;;;;;;;;;7363367;19;1277;-63
2023/08/24 06:36:38;;;;;;;;;;;;;;;;;;7365579;19;932;-63
2023/08/24 06:39:06;;;;;;;;;;;;;;;;;;7366824;19;818;-63
2023/08/24 06:41:34;;;;;;;;;;;;;;;;;;7365290;19;866;-62
2023/08/24 06:44:08;;;;;;;;;;;;;;;;;;7365122;19;1301;-64
2023/08/24 06:46:36;;;;;;;;;;;;;;;;;;7366491;19;798;-64
2023/08/24 06:49:05;;;;;;;;;;;;;;;;;;7366226;19;1865;-64
2023/08/24 06:51:33;;;;;;;;;;;;;;;;;;7367567;19;794;-63
2023/08/24 06:54:02;;;;;;;;;;;;;;;;;;7368381;19;1861;-65
2023/08/24 06:56:30;;;;;;;;;;;;;;;;;;7368991;19;1868;-64
2023/08/24 06:58:59;;;;;;;;;;;;;;;;;;7371001;19;1258;-64
2023/08/24 07:01:27;;;;;;;;;;;;;;;;;;7368368;19;830;-66
2023/08/24 07:03:55;;;;;;;;;;;;;;;;;;7366291;19;1285;-63
2023/08/24 07:06:24;;;;;;;;;;;;;;;;;;7369984;19;1737;-64
2023/08/24 07:08:52;;;;;;;;;;;;;;;;;;7369168;19;1839;-64
2023/08/24 07:11:21;;;;;;;;;;;;;;;;;;7367561;19;1684;-64
2023/08/24 07:13:50;;;;;;;;;;;;;;;;;;7368306;19;1960;-64
2023/08/24 07:16:18;;;;;;;;;;;;;;;;;;7367367;19;1888;-63
2023/08/24 07:18:46;;;;;;;;;;;;;;;;;;7367045;19;1852;-64
2023/08/24 07:21:14;;;;;;;;;;;;;;;;;;7368488;19;1660;-64
2023/08/24 07:23:42;;;;;;;;;;;;;;;;;;7370029;19;1365;-65
2023/08/24 07:26:11;;;;;;;;;;;;;;;;;;7367779;19;1586;-64
2023/08/24 07:28:39;;;;;;;;;;;;;;;;;;7366438;19;1545;-64
2023/08/24 07:31:07;;;;;;;;;;;;;;;;;;7363303;19;1883;-63
2023/08/24 07:33:35;;;;;;;;;;;;;;;;;;7366650;19;1270;-64
2023/08/24 07:36:04;;;;;;;;;;;;;;;;;;7364764;19;881;-64
2023/08/24 07:38:32;;;;;;;;;;;;;;;;;;7365180;19;793;-63
2023/08/24 07:41:00;;;;;;;;;;;;;;;;;;7366292;19;813;-64
2023/08/24 07:43:29;;;;;;;;;;;;;;;;;;7367228;19;1627;-64
2023/08/24 07:45:57;;;;;;;;;;;;;;;;;;7368854;19;1729;-64
2023/08/24 07:48:25;;;;;;;;;;;;;;;;;;7366045;19;2001;-64
2023/08/24 07:50:53;;;;;;;;;;;;;;;;;;7367161;19;1857;-65
2023/08/24 07:53:22;;;;;;;;;;;;;;;;;;7368531;19;814;-66
2023/08/24 07:55:50;;;;;;;;;;;;;;;;;;7370753;19;1655;-65
2023/08/24 07:58:18;;;;;;;;;;;;;;;;;;7374876;19;2093;-64
2023/08/24 08:00:46;;;;;;;;;;;;;;;;;;7374961;19;1475;-65
2023/08/24 08:03:15;;;;;;;;;;;;;;;;;;7373870;19;1585;-64
2023/08/24 08:05:43;;;;;;;;;;;;;;;;;;7368927;19;1296;-64
2023/08/24 08:08:11;;;;;;;;;;;;;;;;;;7373401;19;1916;-64
2023/08/24 08:10:39;;;;;;;;;;;;;;;;;;7372855;19;1838;-64
2023/08/24 08:13:07;;;;;;;;;;;;;;;;;;7374390;19;1780;-65
2023/08/24 08:15:36;;;;;;;;;;;;;;;;;;7371694;19;1796;-65
2023/08/24 08:18:04;;;;;;;;;;;;;;;;;;7372335;19;1724;-65
2023/08/24 08:20:32;;;;;;;;;;;;;;;;;;7373127;19;2256;-65
2023/08/24 08:23:00;;;;;;;;;;;;;;;;;;7375060;19;1348;-65
2023/08/24 08:25:28;;;;;;;;;;;;;;;;;;7370179;19;1599;-65
2023/08/24 08:27:57;;;;;;;;;;;;;;;;;;7372372;19;1803;-65
2023/08/24 08:30:25;;;;;;;;;;;;;;;;;;7372215;19;1920;-65
2023/08/24 08:32:54;;;;;;;;;;;;;;;;;;7375622;19;1837;-65
2023/08/24 08:35:22;;;;;;;;;;;;;;;;;;7372748;19;2099;-65
2023/08/24 08:37:53;;;;;;;;;;;;;;;;;;7373919;19;1684;-64
2023/08/24 08:40:21;;;;;;;;;;;;;;;;;;7371372;19;795;-65
2023/08/24 08:42:49;;;;;;;;;;;;;;;;;;7370379;19;1432;-64
2023/08/24 08:45:18;;;;;;;;;;;;;;;;;;7371281;19;1461;-64
2023/08/24 08:47:46;;;;;;;;;;;;;;;;;;7370234;19;841;-64
2023/08/24 08:50:14;;;;;;;;;;;;;;;;;;7369366;19;1838;-64
2023/08/24 08:52:42;;;;;;;;;;;;;;;;;;7374519;19;1748;-64
2023/08/24 08:55:11;;;;;;;;;;;;;;;;;;7369797;19;1782;-64
2023/08/24 08:57:39;;;;;;;;;;;;;;;;;;7372071;19;1861;-63
2023/08/24 09:00:09;;;;;;;;;;;;;;;;;;7374087;19;1471;-64
2023/08/24 09:02:37;;;;;;;;;;;;;;;;;;7369636;19;758;-65
2023/08/24 09:05:06;;;;;;;;;;;;;;;;;;7366988;19;1277;-64
2023/08/24 09:07:34;;;;;;;;;;;;;;;;;;7369101;19;822;-64
2023/08/24 09:10:03;;;;;;;;;;;;;;;;;;7368145;19;1859;-64
2023/08/24 09:12:31;;;;;;;;;;;;;;;;;;7368983;19;808;-65
2023/08/24 09:15:00;;;;;;;;;;;;;;;;;;7368591;19;1376;-65
2023/08/24 09:17:28;;;;;;;;;;;;;;;;;;7369411;19;852;-64
2023/08/24 09:19:56;;;;;;;;;;;;;;;;;;7368672;19;824;-65
2023/08/24 09:22:24;;;;;;;;;;;;;;;;;;7369898;19;838;-64
2023/08/24 09:24:54;;;;;;;;;;;;;;;;;;7367663;19;1317;-64
2023/08/24 09:27:22;;;;;;;;;;;;;;;;;;7369026;19;701;-65
2023/08/24 09:29:51;;;;;;;;;;;;;;;;;;7367545;19;1841;-65
2023/08/24 09:32:19;;;;;;;;;;;;;;;;;;7368911;19;762;-64
2023/08/24 09:34:47;;;;;;;;;;;;;;;;;;7368411;19;1290;-65
2023/08/24 09:37:15;;;;;;;;;;;;;;;;;;7367745;19;876;-65
2023/08/24 09:39:43;;;;;;;;;;;;;;;;;;7368471;19;749;-65
2023/08/24 09:42:12;;;;;;;;;;;;;;;;;;7368766;19;853;-64
2023/08/24 09:44:40;;;;;;;;;;;;;;;;;;7367381;19;1313;-64
2023/08/24 09:47:08;;;;;;;;;;;;;;;;;;7368286;19;796;-64
2023/08/24 09:49:36;;;;;;;;;;;;;;;;;;7367075;19;1873;-64
2023/08/24 09:52:05;;;;;;;;;;;;;;;;;;7367202;19;768;-64
2023/08/24 09:54:33;;;;;;;;;;;;;;;;;;7366914;19;1330;-64
2023/08/24 09:57:01;;;;;;;;;;;;;;;;;;7367759;19;787;-65
2023/08/24 09:59:29;;;;;;;;;;;;;;;;;;7367435;19;821;-65
2023/08/24 10:01:57;;;;;;;;;;;;;;;;;;7369025;19;851;-64
2023/08/24 10:04:25;;;;;;;;;;;;;;;;;;7367649;19;1277;-65
2023/08/24 10:06:54;;;;;;;;;;;;;;;;;;7367576;19;807;-65
2023/08/24 10:09:22;;;;;;;;;;;;;;;;;;7368222;19;785;-65
2023/08/24 10:11:50;;;;;;;;;;;;;;;;;;7365908;19;1834;-65
2023/08/24 10:14:18;;;;;;;;;;;;;;;;;;7367133;19;1273;-64
2023/08/24 10:16:46;;;;;;;;;;;;;;;;;;7364427;19;886;-64
2023/08/24 10:19:15;;;;;;;;;;;;;;;;;;7367079;19;808;-64
2023/08/24 10:21:43;;;;;;;;;;;;;;;;;;7368920;19;928;-64
2023/08/24 10:24:11;;;;;;;;;;;;;;;;;;7369478;19;1678;-65
2023/08/24 10:26:39;;;;;;;;;;;;;;;;;;7369045;19;1643;-66
2023/08/24 10:29:07;;;;;;;;;;;;;;;;;;7368716;19;2478;-64
2023/08/24 10:31:35;;;;;;;;;;;;;;;;;;7369629;19;1852;-64
2023/08/24 10:34:04;;;;;;;;;;;;;;;;;;7366938;19;1699;-65
2023/08/24 10:36:33;;;;;;;;;;;;;;;;;;7370307;19;1709;-65
2023/08/24 10:39:03;;;;;;;;;;;;;;;;;;7363992;19;737;-64
2023/08/24 10:41:31;;;;;;;;;;;;;;;;;;7368217;19;789;-65
2023/08/24 10:43:59;;;;;;;;;;;;;;;;;;7366340;19;1359;-64
2023/08/24 10:46:27;;;;;;;;;;;;;;;;;;7367559;19;794;-65
2023/08/24 10:48:55;;;;;;;;;;;;;;;;;;7366533;19;792;-65
2023/08/24 10:51:25;;;;;;;;;;;;;;;;;;7364725;19;1853;-65
2023/08/24 10:53:54;;;;;;;;;;;;;;;;;;7366932;19;1286;-65
2023/08/24 10:56:22;;;;;;;;;;;;;;;;;;7366206;19;1790;-65
2023/08/24 10:58:50;;;;;;;;;;;;;;;;;;7365349;19;2047;-65
2023/08/24 11:01:19;;;;;;;;;;;;;;;;;;7369010;19;1587;-64
2023/08/24 11:03:47;;;;;;;;;;;;;;;;;;7369384;19;1816;-65
2023/08/24 11:06:15;;;;;;;;;;;;;;;;;;7368344;19;1242;-65
2023/08/24 11:08:43;;;;;;;;;;;;;;;;;;7365519;19;790;-65
2023/08/24 11:11:11;;;;;;;;;;;;;;;;;;7365154;19;1834;-65
2023/08/24 11:13:40;;;;;;;;;;;;;;;;;;7367874;19;1789;-65
2023/08/24 11:16:09;;;;;;;;;;;;;;;;;;7370113;19;2151;-64
2023/08/24 11:18:37;;;;;;;;;;;;;;;;;;7368226;19;1618;-65
2023/08/24 11:21:05;;;;;;;;;;;;;;;;;;7369801;19;1795;-65
2023/08/24 11:23:33;;;;;;;;;;;;;;;;;;7369144;19;1694;-65
2023/08/24 11:26:01;;;;;;;;;;;;;;;;;;7366978;19;889;-65
2023/08/24 11:28:31;;;;;;;;;;;;;;;;;;7366394;19;1943;-65
2023/08/24 11:30:59;;;;;;;;;;;;;;;;;;7368975;19;1862;-64
2023/08/24 11:33:27;;;;;;;;;;;;;;;;;;7366152;19;1811;-64
2023/08/24 11:35:55;;;;;;;;;;;;;;;;;;7369456;19;1779;-64
2023/08/24 11:38:23;;;;;;;;;;;;;;;;;;7365490;19;887;-65
2023/08/24 11:40:52;;;;;;;;;;;;;;;;;;7368250;19;1656;-65
2023/08/24 11:43:20;;;;;;;;;;;;;;;;;;7367341;19;1599;-65
2023/08/24 11:45:48;;;;;;;;;;;;;;;;;;7364305;19;1836;-65
2023/08/24 11:48:16;;;;;;;;;;;;;;;;;;7368734;19;1944;-65
2023/08/24 11:50:44;;;;;;;;;;;;;;;;;;7365544;19;1849;-65
2023/08/24 11:53:12;;;;;;;;;;;;;;;;;;7364293;19;2052;-65
2023/08/24 11:55:41;;;;;;;;;;;;;;;;;;7364889;19;1896;-65
2023/08/24 11:58:09;;;;;;;;;;;;;;;;;;7366237;19;1743;-64
2023/08/24 12:00:37;;;;;;;;;;;;;;;;;;7367913;19;2127;-65
2023/08/24 12:03:06;;;;;;;;;;;;;;;;;;7368766;19;1319;-65
2023/08/24 12:05:34;;;;;;;;;;;;;;;;;;7365971;19;1714;-66
2023/08/24 12:08:02;;;;;;;;;;;;;;;;;;7364715;19;729;-67
2023/08/24 12:10:30;;;;;;;;;;;;;;;;;;7363664;19;1870;-67
2023/08/24 12:12:58;;;;;;;;;;;;;;;;;;7367165;19;1666;-67
2023/08/24 12:15:26;;;;;;;;;;;;;;;;;;7364351;19;1792;-67
2023/08/24 12:17:55;;;;;;;;;;;;;;;;;;7368376;19;1628;-67
2023/08/24 12:20:24;;;;;;;;;;;;;;;;;;7364295;19;787;-67
2023/08/24 12:22:52;;;;;;;;;;;;;;;;;;7365362;19;805;-67
2023/08/24 12:25:20;;;;;;;;;;;;;;;;;;7361319;19;1735;-67
2023/08/24 12:27:48;;;;;;;;;;;;;;;;;;7366437;19;1701;-67
2023/08/24 12:30:16;;;;;;;;;;;;;;;;;;7366816;19;1991;-68
2023/08/24 12:32:44;;;;;;;;;;;;;;;;;;7364750;19;1904;-67
2023/08/24 12:35:13;;;;;;;;;;;;;;;;;;7364191;19;1966;-68
2023/08/24 12:37:41;;;;;;;;;;;;;;;;;;7365074;19;1891;-67
2023/08/24 12:40:09;;;;;;;;;;;;;;;;;;7370162;19;1613;-67
2023/08/24 12:42:37;;;;;;;;;;;;;;;;;;7369511;19;875;-66
2023/08/24 12:45:06;;;;;;;;;;;;;;;;;;7370363;19;1962;-66
2023/08/24 12:47:37;;;;;;;;;;;;;;;;;;7373059;19;1457;-66
2023/08/24 12:50:05;;;;;;;;;;;;;;;;;;7369966;19;1798;-65
2023/08/24 12:52:34;;;;;;;;;;;;;;;;;;7371491;19;2215;-66
2023/08/24 12:55:03;;;;;;;;;;;;;;;;;;7371817;19;1486;-66
2023/08/24 12:57:31;;;;;;;;;;;;;;;;;;7370327;19;1710;-66
2023/08/24 12:59:59;;;;;;;;;;;;;;;;;;7370166;19;1766;-67
2023/08/24 13:02:27;;;;;;;;;;;;;;;;;;7373561;19;1821;-66
2023/08/24 13:04:55;;;;;;;;;;;;;;;;;;7373203;19;1878;-67
2023/08/24 13:07:23;;;;;;;;;;;;;;;;;;7370031;19;857;-66
2023/08/24 13:09:51;;;;;;;;;;;;;;;;;;7368083;19;861;-66
2023/08/24 13:12:20;;;;;;;;;;;;;;;;;;7368381;19;1833;-69
2023/08/24 13:14:48;;;;;;;;;;;;;;;;;;7367335;19;1327;-66
2023/08/24 13:17:16;;;;;;;;;;;;;;;;;;7369322;19;872;-66
2023/08/24 13:19:44;;;;;;;;;;;;;;;;;;7366824;19;2066;-66
2023/08/24 13:22:13;;;;;;;;;;;;;;;;;;7373432;19;1666;-66
2023/08/24 13:24:42;;;;;;;;;;;;;;;;;;7368792;19;1376;-66
2023/08/24 13:27:11;;;;;;;;;;;;;;;;;;7371858;19;1860;-67
2023/08/24 13:29:39;;;;;;;;;;;;;;;;;;7371641;19;1661;-67
2023/08/24 13:32:07;;;;;;;;;;;;;;;;;;7371497;19;1846;-66
2023/08/24 13:34:35;;;;;;;;;;;;;;;;;;7367057;19;1610;-66
2023/08/24 13:37:04;;;;;;;;;;;;;;;;;;7373214;19;1783;-66
2023/08/24 13:39:32;;;;;;;;;;;;;;;;;;7368651;19;834;-66
2023/08/24 13:42:00;;;;;;;;;;;;;;;;;;7369902;19;2103;-66
2023/08/24 13:44:28;;;;;;;;;;;;;;;;;;7369650;19;1959;-67
2023/08/24 13:46:56;;;;;;;;;;;;;;;;;;7370997;19;1930;-66
2023/08/24 13:49:24;;;;;;;;;;;;;;;;;;7370814;19;1799;-67
2023/08/24 13:51:52;;;;;;;;;;;;;;;;;;7369511;19;1846;-66
2023/08/24 13:54:21;;;;;;;;;;;;;;;;;;7369796;19;1334;-66
2023/08/24 13:56:50;;;;;;;;;;;;;;;;;;7366162;19;853;-67
2023/08/24 13:59:18;;;;;;;;;;;;;;;;;;7368585;19;1788;-67
2023/08/24 14:01:46;;;;;;;;;;;;;;;;;;7370875;19;1831;-67
2023/08/24 14:04:14;;;;;;;;;;;;;;;;;;7367435;19;1302;-66
2023/08/24 14:06:42;;;;;;;;;;;;;;;;;;7372527;19;1674;-68
2023/08/24 14:09:10;;;;;;;;;;;;;;;;;;7371778;19;1347;-66
2023/08/24 14:11:39;;;;;;;;;;;;;;;;;;7366847;19;1857;-67
2023/08/24 14:14:07;;;;;;;;;;;;;;;;;;7368806;19;1683;-66
2023/08/24 14:16:35;;;;;;;;;;;;;;;;;;7370657;19;1874;-68
2023/08/24 14:19:04;;;;;;;;;;;;;;;;;;7369758;19;2227;-66
2023/08/24 14:21:32;;;;;;;;;;;;;;;;;;7368974;19;1821;-67
2023/08/24 14:24:00;;;;;;;;;;;;;;;;;;7369118;19;1693;-66
2023/08/24 14:26:28;;;;;;;;;;;;;;;;;;7367466;19;1732;-67
2023/08/24 14:28:56;;;;;;;;;;;;;;;;;;7370968;19;1374;-67
2023/08/24 14:31:25;;;;;;;;;;;;;;;;;;7366852;19;1873;-66
2023/08/24 14:33:53;;;;;;;;;;;;;;;;;;7367165;19;1299;-67
2023/08/24 14:36:21;;;;;;;;;;;;;;;;;;7371061;19;2046;-67
2023/08/24 14:38:49;;;;;;;;;;;;;;;;;;7367762;19;1973;-67
2023/08/24 14:41:17;;;;;;;;;;;;;;;;;;7369420;19;1799;-67
2023/08/24 14:43:45;;;;;;;;;;;;;;;;;;7367283;19;1305;-67
2023/08/24 14:46:14;;;;;;;;;;;;;;;;;;7369690;19;2156;-67
2023/08/24 14:48:42;;;;;;;;;;;;;;;;;;7370077;19;1467;-67
2023/08/24 14:51:10;;;;;;;;;;;;;;;;;;7366830;19;1846;-66
2023/08/24 14:53:38;;;;;;;;;;;;;;;;;;7369391;19;2074;-67
2023/08/24 14:56:06;;;;;;;;;;;;;;;;;;7369037;19;1465;-66
2023/08/24 14:58:34;;;;;;;;;;;;;;;;;;7364656;19;812;-66
2023/08/24 15:01:02;;;;;;;;;;;;;;;;;;7366718;19;1019;-67
2023/08/24 15:03:31;;;;;;;;;;;;;;;;;;7365172;19;855;-67
2023/08/24 15:05:59;;;;;;;;;;;;;;;;;;7366207;19;797;-67
2023/08/24 15:08:27;;;;;;;;;;;;;;;;;;7364651;19;855;-67
2023/08/24 15:10:56;;;;;;;;;;;;;;;;;;7366717;19;810;-66
2023/08/24 15:13:24;;;;;;;;;;;;;;;;;;7363536;19;1857;-67
2023/08/24 15:15:52;;;;;;;;;;;;;;;;;;7362594;19;1320;-66
2023/08/24 15:18:20;;;;;;;;;;;;;;;;;;7364926;19;1919;-66
2023/08/24 15:20:48;;;;;;;;;;;;;;;;;;7367113;19;1936;-66
2023/08/24 15:23:16;;;;;;;;;;;;;;;;;;7369679;19;1602;-67
2023/08/24 15:25:45;;;;;;;;;;;;;;;;;;7365432;19;1748;-67
2023/08/24 15:28:13;;;;;;;;;;;;;;;;;;7368287;19;1881;-66
2023/08/24 15:30:41;;;;;;;;;;;;;;;;;;7369881;19;1514;-66
2023/08/24 15:33:09;;;;;;;;;;;;;;;;;;7367401;19;1873;-67
2023/08/24 15:35:37;;;;;;;;;;;;;;;;;;7366836;19;1899;-66
2023/08/24 15:38:05;;;;;;;;;;;;;;;;;;7369565;19;1465;-67
2023/08/24 15:40:34;;;;;;;;;;;;;;;;;;7366068;19;847;-67
2023/08/24 15:43:02;;;;;;;;;;;;;;;;;;7368340;19;2006;-67
2023/08/24 15:45:31;;;;;;;;;;;;;;;;;;7366124;19;1420;-67
2023/08/24 15:47:59;;;;;;;;;;;;;;;;;;7364639;19;761;-66
2023/08/24 15:50:27;;;;;;;;;;;;;;;;;;7366796;19;1714;-66
2023/08/24 15:52:57;;;;;;;;;;;;;;;;;;7367836;19;1863;-66
2023/08/24 15:55:26;;;;;;;;;;;;;;;;;;7363010;19;1308;-66
2023/08/24 15:57:54;;;;;;;;;;;;;;;;;;7365035;19;1900;-66
2023/08/24 16:00:22;;;;;;;;;;;;;;;;;;7364187;19;1922;-66
2023/08/24 16:02:50;;;;;;;;;;;;;;;;;;7367619;19;1927;-66
2023/08/24 16:05:18;;;;;;;;;;;;;;;;;;7365163;19;1277;-67
2023/08/24 16:07:46;;;;;;;;;;;;;;;;;;7366348;19;1945;-66
2023/08/24 16:10:14;;;;;;;;;;;;;;;;;;7369218;19;1780;-65
2023/08/24 16:12:42;;;;;;;;;;;;;;;;;;7363504;19;1849;-67
2023/08/24 16:15:11;;;;;;;;;;;;;;;;;;7369704;19;1690;-67
2023/08/24 16:17:39;;;;;;;;;;;;;;;;;;7377041;19;1671;-66
2023/08/24 16:20:11;;;;;;;;;;;;;;;;;;7371603;19;1543;-67
2023/08/24 16:22:39;;;;;;;;;;;;;;;;;;7376806;19;1611;-67
2023/08/24 16:25:07;;;;;;;;;;;;;;;;;;7374737;19;1882;-67
2023/08/24 16:27:36;;;;;;;;;;;;;;;;;;7373450;19;1890;-67
2023/08/24 16:30:04;;;;;;;;;;;;;;;;;;7374122;19;1631;-66
2023/08/24 16:32:32;;;;;;;;;;;;;;;;;;7375441;19;1855;-66
2023/08/24 16:35:00;;;;;;;;;;;;;;;;;;7373584;19;2182;-66
2023/08/24 16:37:28;;;;;;;;;;;;;;;;;;7374435;19;1587;-67
2023/08/24 16:39:56;;;;;;;;;;;;;;;;;;7374838;19;1661;-66
2023/08/24 16:42:24;;;;;;;;;;;;;;;;;;7370746;19;2029;-66
2023/08/24 16:44:53;;;;;;;;;;;;;;;;;;7374998;19;1769;-67
2023/08/24 16:47:21;;;;;;;;;;;;;;;;;;7373654;19;839;-67
2023/08/24 16:49:49;;;;;;;;;;;;;;;;;;7371860;19;2014;-67
2023/08/24 16:52:18;;;;;;;;;;;;;;;;;;7366896;19;1889;-67
2023/08/24 16:54:47;;;;;;;;;;;;;;;;;;7372886;19;1917;-68
2023/08/24 16:57:15;;;;;;;;;;;;;;;;;;7372180;19;2098;-67
2023/08/24 16:59:43;;;;;;;;;;;;;;;;;;7372109;19;1731;-66
2023/08/24 17:02:11;;;;;;;;;;;;;;;;;;7371967;19;1884;-67
2023/08/24 17:04:39;;;;;;;;;;;;;;;;;;7366637;19;1993;-67
2023/08/24 17:07:07;;;;;;;;;;;;;;;;;;7373195;19;1469;-66
2023/08/24 17:09:36;;;;;;;;;;;;;;;;;;7366900;19;2096;-66
2023/08/24 17:12:04;;;;;;;;;;;;;;;;;;7372225;19;1906;-67